sensor_id;sensor_type;location;lat;lon;timestamp;P1;durP1;ratioP1;P2;durP2;ratioP2
253;SDS011;590;48.772;8.846;2022-12-26T00:00:01;2.50;;;2.30;;
253;SDS011;590;48.772;8.846;2022-12-26T00:02:38;2.33;;;2.13;;
253;SDS011;590;48.772;8.846;2022-12-26T00:05:07;2.57;;;2.37;;
253;SDS011;590;48.772;8.846;2022-12-26T00:07:45;2.57;;;2.37;;
253;SDS011;590;48.772;8.846;2022-12-26T00:10:23;2.43;;;2.23;;
253;SDS011;590;48.772;8.846;2022-12-26T00:12:51;2.00;;;1.90;;
253;SDS011;590;48.772;8.846;2022-12-26T00:15:42;1.90;;;1.80;;
253;SDS011;590;48.772;8.846;2022-12-26T00:18:11;2.30;;;2.10;;
253;SDS011;590;48.772;8.846;2022-12-26T00:20:39;2.00;;;1.90;;
253;SDS011;590;48.772;8.846;2022-12-26T00:23:07;2.33;;;2.13;;
253;SDS011;590;48.772;8.846;2022-12-26T00:25:35;2.57;;;2.37;;
253;SDS011;590;48.772;8.846;2022-12-26T00:28:03;1.90;;;1.80;;
253;SDS011;590;48.772;8.846;2022-12-26T00:30:31;2.23;;;2.03;;
253;SDS011;590;48.772;8.846;2022-12-26T00:33:00;2.43;;;2.23;;
253;SDS011;590;48.772;8.846;2022-12-26T00:35:29;2.50;;;2.30;;
253;SDS011;590;48.772;8.846;2022-12-26T00:38:00;2.50;;;2.30;;
253;SDS011;590;48.772;8.846;2022-12-26T00:40:36;2.47;;;2.27;;
253;SDS011;590;48.772;8.846;2022-12-26T00:43:14;2.50;;;2.30;;
253;SDS011;590;48.772;8.846;2022-12-26T00:46:12;2.40;;;2.20;;
253;SDS011;590;48.772;8.846;2022-12-26T00:48:46;2.30;;;2.17;;
253;SDS011;590;48.772;8.846;2022-12-26T00:51:19;2.33;;;2.13;;
253;SDS011;590;48.772;8.846;2022-12-26T00:53:55;2.60;;;2.07;;
253;SDS011;590;48.772;8.846;2022-12-26T00:59:20;2.00;;;1.90;;
253;SDS011;590;48.772;8.846;2022-12-26T01:01:49;1.90;;;1.80;;
253;SDS011;590;48.772;8.846;2022-12-26T01:04:25;2.20;;;2.00;;
253;SDS011;590;48.772;8.846;2022-12-26T01:06:57;2.27;;;2.07;;
253;SDS011;590;48.772;8.846;2022-12-26T01:09:25;1.70;;;1.60;;
253;SDS011;590;48.772;8.846;2022-12-26T01:11:53;2.50;;;2.30;;
253;SDS011;590;48.772;8.846;2022-12-26T01:14:21;1.90;;;1.87;;
253;SDS011;590;48.772;8.846;2022-12-26T01:16:49;1.67;;;1.57;;
253;SDS011;590;48.772;8.846;2022-12-26T01:19:18;2.30;;;2.10;;
253;SDS011;590;48.772;8.846;2022-12-26T01:21:47;2.43;;;2.23;;
253;SDS011;590;48.772;8.846;2022-12-26T01:24:15;1.70;;;1.60;;
253;SDS011;590;48.772;8.846;2022-12-26T01:26:44;2.13;;;1.97;;
253;SDS011;590;48.772;8.846;2022-12-26T01:29:13;2.40;;;2.20;;
253;SDS011;590;48.772;8.846;2022-12-26T01:31:48;2.50;;;2.30;;
253;SDS011;590;48.772;8.846;2022-12-26T01:34:19;2.07;;;1.93;;
253;SDS011;590;48.772;8.846;2022-12-26T01:36:48;2.20;;;2.00;;
253;SDS011;590;48.772;8.846;2022-12-26T01:39:24;2.30;;;2.10;;
253;SDS011;590;48.772;8.846;2022-12-26T01:42:38;2.27;;;2.07;;
253;SDS011;590;48.772;8.846;2022-12-26T01:45:16;2.47;;;2.27;;
253;SDS011;590;48.772;8.846;2022-12-26T02:09:51;2.37;;;2.17;;
253;SDS011;590;48.772;8.846;2022-12-26T02:12:22;2.20;;;2.00;;
253;SDS011;590;48.772;8.846;2022-12-26T02:15:06;2.40;;;2.20;;
253;SDS011;590;48.772;8.846;2022-12-26T02:17:37;1.87;;;1.77;;
253;SDS011;590;48.772;8.846;2022-12-26T02:20:09;2.40;;;2.20;;
253;SDS011;590;48.772;8.846;2022-12-26T02:26:06;1.90;;;1.80;;
253;SDS011;590;48.772;8.846;2022-12-26T03:25:22;1.70;;;1.60;;
253;SDS011;590;48.772;8.846;2022-12-26T03:28:15;2.30;;;2.10;;
253;SDS011;590;48.772;8.846;2022-12-26T03:30:43;1.83;;;1.73;;
253;SDS011;590;48.772;8.846;2022-12-26T03:33:22;2.40;;;2.20;;
253;SDS011;590;48.772;8.846;2022-12-26T03:36:10;2.50;;;2.13;;
253;SDS011;590;48.772;8.846;2022-12-26T03:38:42;1.80;;;1.70;;
253;SDS011;590;48.772;8.846;2022-12-26T03:41:24;2.30;;;2.10;;
253;SDS011;590;48.772;8.846;2022-12-26T03:44:27;2.20;;;2.00;;
253;SDS011;590;48.772;8.846;2022-12-26T03:47:28;1.70;;;1.60;;
253;SDS011;590;48.772;8.846;2022-12-26T03:50:36;1.83;;;1.73;;
253;SDS011;590;48.772;8.846;2022-12-26T03:53:32;1.77;;;1.50;;
253;SDS011;590;48.772;8.846;2022-12-26T04:01:13;1.93;;;1.83;;
253;SDS011;590;48.772;8.846;2022-12-26T04:04:11;1.80;;;1.77;;
253;SDS011;590;48.772;8.846;2022-12-26T04:07:14;2.00;;;1.90;;
253;SDS011;590;48.772;8.846;2022-12-26T04:10:36;1.90;;;1.80;;
253;SDS011;590;48.772;8.846;2022-12-26T04:13:37;1.80;;;1.70;;
253;SDS011;590;48.772;8.846;2022-12-26T04:16:34;2.70;;;2.50;;
253;SDS011;590;48.772;8.846;2022-12-26T04:19:36;2.00;;;1.90;;
253;SDS011;590;48.772;8.846;2022-12-26T04:22:18;1.70;;;1.60;;
253;SDS011;590;48.772;8.846;2022-12-26T04:25:18;1.37;;;1.27;;
253;SDS011;590;48.772;8.846;2022-12-26T04:31:57;1.80;;;1.70;;
253;SDS011;590;48.772;8.846;2022-12-26T04:35:12;1.77;;;1.67;;
253;SDS011;590;48.772;8.846;2022-12-26T04:38:21;1.63;;;1.53;;
253;SDS011;590;48.772;8.846;2022-12-26T04:42:16;1.50;;;1.40;;
253;SDS011;590;48.772;8.846;2022-12-26T04:45:03;1.70;;;1.60;;
253;SDS011;590;48.772;8.846;2022-12-26T04:47:35;1.63;;;1.60;;
253;SDS011;590;48.772;8.846;2022-12-26T04:50:07;1.60;;;1.50;;
253;SDS011;590;48.772;8.846;2022-12-26T04:52:52;1.60;;;1.50;;
253;SDS011;590;48.772;8.846;2022-12-26T04:55:26;1.47;;;1.37;;
253;SDS011;590;48.772;8.846;2022-12-26T04:57:55;1.77;;;1.67;;
253;SDS011;590;48.772;8.846;2022-12-26T05:00:25;1.90;;;1.80;;
253;SDS011;590;48.772;8.846;2022-12-26T05:02:56;1.90;;;1.80;;
253;SDS011;590;48.772;8.846;2022-12-26T05:05:46;1.63;;;1.53;;
253;SDS011;590;48.772;8.846;2022-12-26T05:08:34;1.83;;;1.73;;
253;SDS011;590;48.772;8.846;2022-12-26T05:11:27;1.70;;;1.60;;
253;SDS011;590;48.772;8.846;2022-12-26T05:13:58;1.83;;;1.73;;
253;SDS011;590;48.772;8.846;2022-12-26T05:16:27;1.63;;;1.53;;
253;SDS011;590;48.772;8.846;2022-12-26T05:19:15;1.93;;;1.83;;
253;SDS011;590;48.772;8.846;2022-12-26T05:22:02;1.63;;;1.53;;
253;SDS011;590;48.772;8.846;2022-12-26T05:24:49;1.80;;;1.80;;
253;SDS011;590;48.772;8.846;2022-12-26T05:27:36;1.63;;;1.53;;
253;SDS011;590;48.772;8.846;2022-12-26T05:30:25;1.63;;;1.53;;
253;SDS011;590;48.772;8.846;2022-12-26T05:33:01;1.73;;;1.63;;
253;SDS011;590;48.772;8.846;2022-12-26T05:35:47;2.03;;;1.90;;
253;SDS011;590;48.772;8.846;2022-12-26T05:38:24;1.53;;;1.43;;
253;SDS011;590;48.772;8.846;2022-12-26T05:41:36;1.97;;;1.70;;
253;SDS011;590;48.772;8.846;2022-12-26T05:44:32;1.50;;;1.40;;
253;SDS011;590;48.772;8.846;2022-12-26T05:47:01;1.50;;;1.40;;
253;SDS011;590;48.772;8.846;2022-12-26T05:49:38;1.77;;;1.67;;
253;SDS011;590;48.772;8.846;2022-12-26T05:52:19;1.47;;;1.37;;
253;SDS011;590;48.772;8.846;2022-12-26T05:54:49;1.83;;;1.73;;
253;SDS011;590;48.772;8.846;2022-12-26T05:57:24;1.80;;;1.70;;
253;SDS011;590;48.772;8.846;2022-12-26T06:00:42;1.70;;;1.60;;
253;SDS011;590;48.772;8.846;2022-12-26T06:03:13;1.77;;;1.67;;
253;SDS011;590;48.772;8.846;2022-12-26T06:05:47;2.30;;;2.10;;
253;SDS011;590;48.772;8.846;2022-12-26T06:08:16;1.60;;;1.50;;
253;SDS011;590;48.772;8.846;2022-12-26T06:10:44;1.90;;;1.80;;
253;SDS011;590;48.772;8.846;2022-12-26T06:13:13;1.80;;;1.70;;
253;SDS011;590;48.772;8.846;2022-12-26T06:15:41;2.53;;;2.33;;
253;SDS011;590;48.772;8.846;2022-12-26T06:18:09;1.80;;;1.70;;
253;SDS011;590;48.772;8.846;2022-12-26T06:20:38;1.93;;;1.83;;
253;SDS011;590;48.772;8.846;2022-12-26T06:23:06;1.90;;;1.80;;
253;SDS011;590;48.772;8.846;2022-12-26T06:25:39;2.37;;;2.17;;
253;SDS011;590;48.772;8.846;2022-12-26T06:28:12;1.83;;;1.73;;
253;SDS011;590;48.772;8.846;2022-12-26T06:30:40;1.60;;;1.50;;
253;SDS011;590;48.772;8.846;2022-12-26T06:33:10;1.87;;;1.77;;
253;SDS011;590;48.772;8.846;2022-12-26T06:35:47;1.73;;;1.63;;
253;SDS011;590;48.772;8.846;2022-12-26T06:38:15;1.80;;;1.70;;
253;SDS011;590;48.772;8.846;2022-12-26T06:40:45;2.20;;;2.00;;
253;SDS011;590;48.772;8.846;2022-12-26T06:43:13;1.97;;;1.87;;
253;SDS011;590;48.772;8.846;2022-12-26T06:45:52;2.23;;;1.80;;
253;SDS011;590;48.772;8.846;2022-12-26T06:48:24;2.47;;;2.27;;
253;SDS011;590;48.772;8.846;2022-12-26T06:54:17;2.37;;;2.17;;
253;SDS011;590;48.772;8.846;2022-12-26T06:56:47;1.87;;;1.77;;
253;SDS011;590;48.772;8.846;2022-12-26T06:59:15;1.73;;;1.63;;
253;SDS011;590;48.772;8.846;2022-12-26T07:01:43;2.30;;;2.10;;
253;SDS011;590;48.772;8.846;2022-12-26T07:04:11;1.60;;;1.50;;
253;SDS011;590;48.772;8.846;2022-12-26T07:06:40;1.83;;;1.70;;
253;SDS011;590;48.772;8.846;2022-12-26T07:09:09;2.20;;;2.00;;
253;SDS011;590;48.772;8.846;2022-12-26T07:11:40;2.07;;;1.93;;
253;SDS011;590;48.772;8.846;2022-12-26T07:14:11;1.90;;;1.80;;
253;SDS011;590;48.772;8.846;2022-12-26T07:16:40;2.20;;;2.00;;
253;SDS011;590;48.772;8.846;2022-12-26T07:19:10;2.60;;;2.17;;
253;SDS011;590;48.772;8.846;2022-12-26T07:21:39;1.80;;;1.70;;
253;SDS011;590;48.772;8.846;2022-12-26T07:24:11;1.90;;;1.80;;
253;SDS011;590;48.772;8.846;2022-12-26T07:26:41;2.17;;;1.80;;
253;SDS011;590;48.772;8.846;2022-12-26T07:29:12;1.83;;;1.73;;
253;SDS011;590;48.772;8.846;2022-12-26T07:31:40;2.50;;;2.30;;
253;SDS011;590;48.772;8.846;2022-12-26T07:34:08;2.47;;;2.27;;
253;SDS011;590;48.772;8.846;2022-12-26T07:36:36;1.83;;;1.73;;
253;SDS011;590;48.772;8.846;2022-12-26T07:39:04;1.83;;;1.73;;
253;SDS011;590;48.772;8.846;2022-12-26T07:41:33;1.77;;;1.67;;
253;SDS011;590;48.772;8.846;2022-12-26T07:44:20;1.77;;;1.63;;
253;SDS011;590;48.772;8.846;2022-12-26T07:46:48;2.13;;;1.97;;
253;SDS011;590;48.772;8.846;2022-12-26T07:49:16;1.73;;;1.63;;
253;SDS011;590;48.772;8.846;2022-12-26T07:51:44;1.90;;;1.80;;
253;SDS011;590;48.772;8.846;2022-12-26T07:54:12;1.97;;;1.87;;
253;SDS011;590;48.772;8.846;2022-12-26T07:56:41;1.80;;;1.70;;
253;SDS011;590;48.772;8.846;2022-12-26T07:59:11;1.83;;;1.73;;
253;SDS011;590;48.772;8.846;2022-12-26T08:01:43;2.07;;;1.93;;
253;SDS011;590;48.772;8.846;2022-12-26T08:04:11;2.30;;;2.10;;
253;SDS011;590;48.772;8.846;2022-12-26T08:06:39;2.27;;;2.07;;
253;SDS011;590;48.772;8.846;2022-12-26T08:09:11;2.50;;;2.13;;
253;SDS011;590;48.772;8.846;2022-12-26T08:11:43;1.90;;;1.80;;
253;SDS011;590;48.772;8.846;2022-12-26T08:14:15;2.33;;;2.13;;
253;SDS011;590;48.772;8.846;2022-12-26T08:16:45;2.30;;;2.10;;
253;SDS011;590;48.772;8.846;2022-12-26T08:19:18;2.37;;;2.17;;
253;SDS011;590;48.772;8.846;2022-12-26T08:21:46;1.80;;;1.70;;
253;SDS011;590;48.772;8.846;2022-12-26T08:24:14;2.20;;;2.00;;
253;SDS011;590;48.772;8.846;2022-12-26T08:26:43;2.03;;;1.90;;
253;SDS011;590;48.772;8.846;2022-12-26T08:29:11;2.47;;;2.27;;
253;SDS011;590;48.772;8.846;2022-12-26T08:31:39;1.83;;;1.73;;
253;SDS011;590;48.772;8.846;2022-12-26T08:34:09;1.77;;;1.67;;
253;SDS011;590;48.772;8.846;2022-12-26T08:36:38;2.00;;;1.90;;
253;SDS011;590;48.772;8.846;2022-12-26T08:39:06;2.47;;;2.27;;
253;SDS011;590;48.772;8.846;2022-12-26T08:41:35;2.63;;;2.43;;
253;SDS011;590;48.772;8.846;2022-12-26T08:44:04;2.30;;;2.10;;
253;SDS011;590;48.772;8.846;2022-12-26T08:46:52;2.63;;;2.50;;
253;SDS011;590;48.772;8.846;2022-12-26T08:49:23;1.90;;;1.80;;
253;SDS011;590;48.772;8.846;2022-12-26T08:51:51;1.90;;;1.80;;
253;SDS011;590;48.772;8.846;2022-12-26T08:54:20;2.70;;;2.50;;
253;SDS011;590;48.772;8.846;2022-12-26T08:56:48;2.30;;;2.10;;
253;SDS011;590;48.772;8.846;2022-12-26T08:59:17;2.00;;;1.90;;
253;SDS011;590;48.772;8.846;2022-12-26T09:01:45;2.67;;;2.40;;
253;SDS011;590;48.772;8.846;2022-12-26T09:04:15;2.63;;;2.20;;
253;SDS011;590;48.772;8.846;2022-12-26T09:06:48;1.90;;;1.80;;
253;SDS011;590;48.772;8.846;2022-12-26T09:09:45;2.40;;;2.20;;
253;SDS011;590;48.772;8.846;2022-12-26T09:12:12;2.97;;;2.77;;
253;SDS011;590;48.772;8.846;2022-12-26T09:14:51;2.33;;;2.13;;
253;SDS011;590;48.772;8.846;2022-12-26T09:17:19;2.73;;;2.57;;
253;SDS011;590;48.772;8.846;2022-12-26T09:19:49;2.00;;;1.90;;
253;SDS011;590;48.772;8.846;2022-12-26T09:22:27;2.33;;;2.13;;
253;SDS011;590;48.772;8.846;2022-12-26T09:25:21;2.40;;;2.20;;
253;SDS011;590;48.772;8.846;2022-12-26T09:28:06;2.50;;;2.30;;
253;SDS011;590;48.772;8.846;2022-12-26T09:31:01;2.63;;;2.47;;
253;SDS011;590;48.772;8.846;2022-12-26T09:33:47;2.80;;;2.60;;
253;SDS011;590;48.772;8.846;2022-12-26T09:45:40;2.63;;;2.43;;
253;SDS011;590;48.772;8.846;2022-12-26T09:49:20;3.20;;;3.00;;
253;SDS011;590;48.772;8.846;2022-12-26T09:51:48;2.80;;;2.60;;
253;SDS011;590;48.772;8.846;2022-12-26T09:54:21;3.23;;;3.03;;
253;SDS011;590;48.772;8.846;2022-12-26T09:56:53;2.70;;;2.50;;
253;SDS011;590;48.772;8.846;2022-12-26T09:59:39;3.07;;;2.87;;
253;SDS011;590;48.772;8.846;2022-12-26T10:02:14;3.10;;;2.90;;
253;SDS011;590;48.772;8.846;2022-12-26T10:04:48;3.00;;;2.80;;
253;SDS011;590;48.772;8.846;2022-12-26T10:07:19;3.33;;;3.13;;
253;SDS011;590;48.772;8.846;2022-12-26T10:09:58;2.93;;;2.73;;
253;SDS011;590;48.772;8.846;2022-12-26T10:20:29;3.03;;;2.83;;
253;SDS011;590;48.772;8.846;2022-12-26T10:23:12;2.87;;;2.67;;
253;SDS011;590;48.772;8.846;2022-12-26T10:25:50;3.33;;;3.13;;
253;SDS011;590;48.772;8.846;2022-12-26T10:28:24;3.80;;;3.60;;
253;SDS011;590;48.772;8.846;2022-12-26T10:31:01;2.67;;;2.47;;
253;SDS011;590;48.772;8.846;2022-12-26T10:33:54;3.20;;;3.00;;
253;SDS011;590;48.772;8.846;2022-12-26T10:36:30;2.80;;;2.60;;
253;SDS011;590;48.772;8.846;2022-12-26T10:39:01;2.87;;;2.67;;
253;SDS011;590;48.772;8.846;2022-12-26T10:41:33;3.13;;;2.93;;
253;SDS011;590;48.772;8.846;2022-12-26T10:44:07;3.23;;;3.03;;
253;SDS011;590;48.772;8.846;2022-12-26T10:46:46;3.67;;;3.47;;
253;SDS011;590;48.772;8.846;2022-12-26T10:50:17;2.87;;;2.67;;
253;SDS011;590;48.772;8.846;2022-12-26T10:53:10;3.07;;;2.87;;
253;SDS011;590;48.772;8.846;2022-12-26T10:55:42;3.30;;;3.10;;
253;SDS011;590;48.772;8.846;2022-12-26T10:58:13;2.70;;;2.50;;
253;SDS011;590;48.772;8.846;2022-12-26T11:00:44;2.80;;;2.60;;
253;SDS011;590;48.772;8.846;2022-12-26T11:03:12;2.90;;;2.70;;
253;SDS011;590;48.772;8.846;2022-12-26T11:05:43;2.50;;;2.27;;
253;SDS011;590;48.772;8.846;2022-12-26T11:08:35;2.87;;;2.67;;
253;SDS011;590;48.772;8.846;2022-12-26T11:11:09;2.80;;;2.60;;
253;SDS011;590;48.772;8.846;2022-12-26T11:13:40;2.70;;;2.50;;
253;SDS011;590;48.772;8.846;2022-12-26T11:16:12;2.70;;;2.50;;
253;SDS011;590;48.772;8.846;2022-12-26T11:18:52;2.97;;;2.78;;
253;SDS011;590;48.772;8.846;2022-12-26T11:21:21;2.80;;;2.60;;
253;SDS011;590;48.772;8.846;2022-12-26T11:23:52;2.43;;;2.23;;
253;SDS011;590;48.772;8.846;2022-12-26T11:26:42;2.30;;;2.10;;
253;SDS011;590;48.772;8.846;2022-12-26T11:29:13;2.57;;;2.37;;
253;SDS011;590;48.772;8.846;2022-12-26T11:31:51;2.50;;;2.30;;
253;SDS011;590;48.772;8.846;2022-12-26T11:35:47;2.30;;;2.10;;
253;SDS011;590;48.772;8.846;2022-12-26T11:39:49;2.80;;;2.60;;
253;SDS011;590;48.772;8.846;2022-12-26T11:42:19;2.43;;;2.00;;
253;SDS011;590;48.772;8.846;2022-12-26T11:44:49;2.77;;;2.20;;
253;SDS011;590;48.772;8.846;2022-12-26T11:47:20;2.30;;;2.10;;
253;SDS011;590;48.772;8.846;2022-12-26T11:49:53;2.20;;;2.00;;
253;SDS011;590;48.772;8.846;2022-12-26T11:52:34;2.50;;;2.30;;
253;SDS011;590;48.772;8.846;2022-12-26T11:58:00;2.00;;;1.90;;
253;SDS011;590;48.772;8.846;2022-12-26T12:00:38;2.67;;;2.47;;
253;SDS011;590;48.772;8.846;2022-12-26T12:03:08;2.13;;;2.00;;
253;SDS011;590;48.772;8.846;2022-12-26T12:05:41;2.90;;;1.60;;
253;SDS011;590;48.772;8.846;2022-12-26T12:08:22;2.40;;;2.20;;
253;SDS011;590;48.772;8.846;2022-12-26T12:11:07;2.27;;;2.10;;
253;SDS011;590;48.772;8.846;2022-12-26T12:13:51;2.20;;;2.00;;
253;SDS011;590;48.772;8.846;2022-12-26T12:16:37;2.30;;;2.10;;
253;SDS011;590;48.772;8.846;2022-12-26T12:22:32;2.20;;;2.00;;
253;SDS011;590;48.772;8.846;2022-12-26T12:25:23;2.20;;;2.00;;
253;SDS011;590;48.772;8.846;2022-12-26T12:28:05;1.77;;;1.67;;
253;SDS011;590;48.772;8.846;2022-12-26T12:30:52;2.23;;;2.03;;
253;SDS011;590;48.772;8.846;2022-12-26T12:33:30;2.43;;;2.23;;
253;SDS011;590;48.772;8.846;2022-12-26T12:36:09;1.60;;;1.50;;
253;SDS011;590;48.772;8.846;2022-12-26T12:38:44;1.60;;;1.50;;
253;SDS011;590;48.772;8.846;2022-12-26T12:41:29;1.80;;;1.70;;
253;SDS011;590;48.772;8.846;2022-12-26T12:44:37;1.50;;;1.40;;
253;SDS011;590;48.772;8.846;2022-12-26T12:47:24;2.00;;;1.90;;
253;SDS011;590;48.772;8.846;2022-12-26T12:49:57;1.90;;;1.80;;
253;SDS011;590;48.772;8.846;2022-12-26T12:52:36;1.87;;;1.77;;
253;SDS011;590;48.772;8.846;2022-12-26T12:55:23;1.77;;;1.67;;
253;SDS011;590;48.772;8.846;2022-12-26T12:58:06;2.30;;;2.10;;
253;SDS011;590;48.772;8.846;2022-12-26T13:00:44;2.20;;;2.00;;
253;SDS011;590;48.772;8.846;2022-12-26T13:03:18;2.20;;;1.90;;
253;SDS011;590;48.772;8.846;2022-12-26T13:05:53;2.00;;;1.90;;
253;SDS011;590;48.772;8.846;2022-12-26T13:08:29;2.43;;;2.23;;
253;SDS011;590;48.772;8.846;2022-12-26T13:11:07;2.47;;;2.30;;
253;SDS011;590;48.772;8.846;2022-12-26T13:13:46;1.97;;;1.87;;
253;SDS011;590;48.772;8.846;2022-12-26T13:16:22;2.50;;;2.30;;
253;SDS011;590;48.772;8.846;2022-12-26T13:18:54;2.80;;;2.60;;
253;SDS011;590;48.772;8.846;2022-12-26T13:21:25;2.30;;;2.10;;
253;SDS011;590;48.772;8.846;2022-12-26T13:23:58;2.23;;;2.03;;
253;SDS011;590;48.772;8.846;2022-12-26T13:29:50;2.40;;;2.20;;
253;SDS011;590;48.772;8.846;2022-12-26T13:32:26;2.27;;;2.07;;
253;SDS011;590;48.772;8.846;2022-12-26T13:34:56;2.47;;;2.27;;
253;SDS011;590;48.772;8.846;2022-12-26T13:40:21;1.73;;;1.63;;
253;SDS011;590;48.772;8.846;2022-12-26T13:42:54;2.40;;;2.20;;
253;SDS011;590;48.772;8.846;2022-12-26T13:45:48;2.80;;;2.60;;
253;SDS011;590;48.772;8.846;2022-12-26T13:51:45;2.50;;;2.30;;
253;SDS011;590;48.772;8.846;2022-12-26T13:54:15;2.77;;;2.57;;
253;SDS011;590;48.772;8.846;2022-12-26T13:59:47;3.47;;;3.27;;
253;SDS011;590;48.772;8.846;2022-12-26T14:02:47;3.23;;;3.03;;
253;SDS011;590;48.772;8.846;2022-12-26T14:09:07;2.93;;;2.73;;
253;SDS011;590;48.772;8.846;2022-12-26T14:11:58;3.27;;;3.07;;
253;SDS011;590;48.772;8.846;2022-12-26T14:15:00;4.33;;;4.03;;
253;SDS011;590;48.772;8.846;2022-12-26T14:17:44;4.10;;;3.70;;
253;SDS011;590;48.772;8.846;2022-12-26T14:20:21;4.23;;;3.97;;
253;SDS011;590;48.772;8.846;2022-12-26T14:23:08;3.57;;;3.37;;
253;SDS011;590;48.772;8.846;2022-12-26T14:25:51;4.47;;;4.00;;
253;SDS011;590;48.772;8.846;2022-12-26T14:28:26;3.33;;;3.13;;
253;SDS011;590;48.772;8.846;2022-12-26T14:31:15;3.70;;;3.50;;
253;SDS011;590;48.772;8.846;2022-12-26T14:33:51;3.83;;;3.50;;
253;SDS011;590;48.772;8.846;2022-12-26T14:36:33;3.10;;;2.90;;
253;SDS011;590;48.772;8.846;2022-12-26T14:39:10;3.80;;;3.60;;
253;SDS011;590;48.772;8.846;2022-12-26T14:51:37;5.23;;;3.70;;
253;SDS011;590;48.772;8.846;2022-12-26T15:03:17;3.57;;;3.37;;
253;SDS011;590;48.772;8.846;2022-12-26T15:06:03;3.50;;;3.30;;
253;SDS011;590;48.772;8.846;2022-12-26T15:09:02;2.97;;;2.77;;
253;SDS011;590;48.772;8.846;2022-12-26T15:11:56;4.90;;;3.70;;
253;SDS011;590;48.772;8.846;2022-12-26T15:17:59;3.17;;;3.03;;
253;SDS011;590;48.772;8.846;2022-12-26T15:20:50;3.73;;;3.53;;
253;SDS011;590;48.772;8.846;2022-12-26T15:23:49;3.07;;;2.87;;
253;SDS011;590;48.772;8.846;2022-12-26T15:26:41;3.27;;;3.07;;
253;SDS011;590;48.772;8.846;2022-12-26T15:32:33;2.80;;;2.60;;
253;SDS011;590;48.772;8.846;2022-12-26T15:35:11;3.30;;;3.10;;
253;SDS011;590;48.772;8.846;2022-12-26T15:37:54;3.43;;;3.23;;
253;SDS011;590;48.772;8.846;2022-12-26T15:40:34;3.17;;;2.97;;
253;SDS011;590;48.772;8.846;2022-12-26T15:46:16;3.07;;;2.90;;
253;SDS011;590;48.772;8.846;2022-12-26T15:49:20;3.50;;;3.00;;
253;SDS011;590;48.772;8.846;2022-12-26T15:52:10;3.27;;;3.07;;
253;SDS011;590;48.772;8.846;2022-12-26T15:54:54;3.47;;;3.27;;
253;SDS011;590;48.772;8.846;2022-12-26T15:57:38;2.60;;;2.40;;
253;SDS011;590;48.772;8.846;2022-12-26T16:00:14;3.03;;;2.83;;
253;SDS011;590;48.772;8.846;2022-12-26T16:02:45;3.30;;;3.10;;
253;SDS011;590;48.772;8.846;2022-12-26T16:05:30;2.90;;;2.70;;
253;SDS011;590;48.772;8.846;2022-12-26T16:08:15;2.70;;;2.50;;
253;SDS011;590;48.772;8.846;2022-12-26T16:11:17;3.43;;;3.23;;
253;SDS011;590;48.772;8.846;2022-12-26T16:13:47;3.03;;;2.83;;
253;SDS011;590;48.772;8.846;2022-12-26T16:16:24;3.10;;;2.70;;
253;SDS011;590;48.772;8.846;2022-12-26T16:18:54;2.50;;;2.30;;
253;SDS011;590;48.772;8.846;2022-12-26T16:21:23;3.80;;;3.43;;
253;SDS011;590;48.772;8.846;2022-12-26T16:24:11;3.33;;;3.00;;
253;SDS011;590;48.772;8.846;2022-12-26T16:26:45;3.00;;;2.80;;
253;SDS011;590;48.772;8.846;2022-12-26T16:29:15;2.70;;;2.50;;
253;SDS011;590;48.772;8.846;2022-12-26T16:31:45;2.50;;;2.30;;
253;SDS011;590;48.772;8.846;2022-12-26T16:34:14;2.80;;;2.60;;
253;SDS011;590;48.772;8.846;2022-12-26T16:36:45;3.20;;;3.03;;
253;SDS011;590;48.772;8.846;2022-12-26T16:39:20;2.97;;;2.77;;
253;SDS011;590;48.772;8.846;2022-12-26T16:41:58;3.23;;;3.03;;
253;SDS011;590;48.772;8.846;2022-12-26T16:44:44;3.00;;;2.80;;
253;SDS011;590;48.772;8.846;2022-12-26T16:47:13;2.97;;;2.80;;
253;SDS011;590;48.772;8.846;2022-12-26T16:49:41;3.00;;;2.80;;
253;SDS011;590;48.772;8.846;2022-12-26T16:52:17;2.40;;;2.20;;
253;SDS011;590;48.772;8.846;2022-12-26T16:58:11;3.73;;;3.30;;
253;SDS011;590;48.772;8.846;2022-12-26T17:00:48;2.60;;;2.40;;
253;SDS011;590;48.772;8.846;2022-12-26T17:03:27;3.33;;;3.20;;
253;SDS011;590;48.772;8.846;2022-12-26T17:06:05;2.90;;;2.70;;
253;SDS011;590;48.772;8.846;2022-12-26T17:08:39;2.97;;;2.77;;
253;SDS011;590;48.772;8.846;2022-12-26T17:11:08;2.80;;;2.60;;
253;SDS011;590;48.772;8.846;2022-12-26T17:13:38;3.20;;;3.00;;
253;SDS011;590;48.772;8.846;2022-12-26T17:16:07;3.37;;;3.17;;
253;SDS011;590;48.772;8.846;2022-12-26T17:18:39;2.77;;;2.57;;
253;SDS011;590;48.772;8.846;2022-12-26T17:21:15;2.70;;;2.37;;
253;SDS011;590;48.772;8.846;2022-12-26T17:24:13;3.60;;;3.40;;
253;SDS011;590;48.772;8.846;2022-12-26T17:26:49;2.73;;;2.53;;
253;SDS011;590;48.772;8.846;2022-12-26T17:29:36;3.33;;;3.13;;
253;SDS011;590;48.772;8.846;2022-12-26T17:32:20;3.00;;;2.80;;
253;SDS011;590;48.772;8.846;2022-12-26T17:35:03;2.83;;;2.63;;
253;SDS011;590;48.772;8.846;2022-12-26T17:37:33;2.83;;;2.63;;
253;SDS011;590;48.772;8.846;2022-12-26T17:40:04;2.77;;;2.57;;
253;SDS011;590;48.772;8.846;2022-12-26T17:42:40;2.90;;;2.70;;
253;SDS011;590;48.772;8.846;2022-12-26T17:45:15;3.20;;;3.00;;
253;SDS011;590;48.772;8.846;2022-12-26T17:47:44;2.80;;;2.60;;
253;SDS011;590;48.772;8.846;2022-12-26T17:50:12;3.03;;;2.83;;
253;SDS011;590;48.772;8.846;2022-12-26T17:52:40;3.10;;;2.90;;
253;SDS011;590;48.772;8.846;2022-12-26T17:55:12;3.30;;;3.10;;
253;SDS011;590;48.772;8.846;2022-12-26T17:57:43;3.30;;;3.10;;
253;SDS011;590;48.772;8.846;2022-12-26T18:00:16;2.80;;;2.60;;
253;SDS011;590;48.772;8.846;2022-12-26T18:02:45;2.70;;;2.50;;
253;SDS011;590;48.772;8.846;2022-12-26T18:05:14;2.90;;;2.70;;
253;SDS011;590;48.772;8.846;2022-12-26T18:07:42;2.90;;;2.70;;
253;SDS011;590;48.772;8.846;2022-12-26T18:10:14;2.70;;;2.50;;
253;SDS011;590;48.772;8.846;2022-12-26T18:12:44;2.50;;;2.30;;
253;SDS011;590;48.772;8.846;2022-12-26T18:15:13;2.63;;;2.43;;
253;SDS011;590;48.772;8.846;2022-12-26T18:17:42;2.40;;;2.27;;
253;SDS011;590;48.772;8.846;2022-12-26T18:20:14;2.70;;;2.50;;
253;SDS011;590;48.772;8.846;2022-12-26T18:22:43;2.67;;;2.47;;
253;SDS011;590;48.772;8.846;2022-12-26T18:25:13;2.17;;;2.00;;
253;SDS011;590;48.772;8.846;2022-12-26T18:27:42;2.70;;;2.50;;
253;SDS011;590;48.772;8.846;2022-12-26T18:30:13;2.40;;;2.20;;
253;SDS011;590;48.772;8.846;2022-12-26T18:32:44;2.50;;;2.30;;
253;SDS011;590;48.772;8.846;2022-12-26T18:35:13;2.47;;;2.27;;
253;SDS011;590;48.772;8.846;2022-12-26T18:37:43;2.27;;;2.07;;
253;SDS011;590;48.772;8.846;2022-12-26T18:40:19;2.27;;;2.07;;
253;SDS011;590;48.772;8.846;2022-12-26T18:42:54;1.97;;;1.87;;
253;SDS011;590;48.772;8.846;2022-12-26T18:45:22;2.33;;;2.13;;
253;SDS011;590;48.772;8.846;2022-12-26T18:47:52;2.00;;;1.90;;
253;SDS011;590;48.772;8.846;2022-12-26T18:50:21;2.50;;;2.30;;
253;SDS011;590;48.772;8.846;2022-12-26T18:52:49;2.30;;;2.10;;
253;SDS011;590;48.772;8.846;2022-12-26T18:55:20;1.83;;;1.83;;
253;SDS011;590;48.772;8.846;2022-12-26T18:57:48;1.60;;;1.50;;
253;SDS011;590;48.772;8.846;2022-12-26T19:00:17;1.73;;;1.63;;
253;SDS011;590;48.772;8.846;2022-12-26T19:02:47;1.73;;;1.63;;
253;SDS011;590;48.772;8.846;2022-12-26T19:05:17;1.90;;;1.80;;
253;SDS011;590;48.772;8.846;2022-12-26T19:07:47;2.17;;;2.00;;
253;SDS011;590;48.772;8.846;2022-12-26T19:10:16;2.00;;;1.90;;
253;SDS011;590;48.772;8.846;2022-12-26T19:12:46;1.97;;;1.87;;
253;SDS011;590;48.772;8.846;2022-12-26T19:15:14;1.57;;;1.47;;
253;SDS011;590;48.772;8.846;2022-12-26T19:17:42;1.60;;;1.50;;
253;SDS011;590;48.772;8.846;2022-12-26T19:20:15;1.60;;;1.50;;
253;SDS011;590;48.772;8.846;2022-12-26T19:22:46;1.63;;;1.53;;
253;SDS011;590;48.772;8.846;2022-12-26T19:25:15;1.50;;;1.40;;
253;SDS011;590;48.772;8.846;2022-12-26T19:27:45;1.90;;;1.80;;
253;SDS011;590;48.772;8.846;2022-12-26T19:30:14;1.50;;;1.40;;
253;SDS011;590;48.772;8.846;2022-12-26T19:32:43;1.63;;;1.53;;
253;SDS011;590;48.772;8.846;2022-12-26T19:35:11;1.60;;;1.50;;
253;SDS011;590;48.772;8.846;2022-12-26T19:37:41;1.30;;;1.20;;